Saverton, Missouri
Current Conditions -  °F | °C
As of 7:35 AM on Wednesday 22 Oct 2014 (Local Time) from KHAE Reporting Station
Clear Clear  
Wind Chill: 41°   Ceiling: Unl
Heat Index: 41°   Visibility: 7mi
Dew Point: 37°   Wind: 3mph
Humidity: 87%   Direction: 100°E
Pressure: 30.3"   Gusts: NA
Location:  39.65°N, 91.27°W
Report Text: KHAE 221235Z AUTO 10003KT 7SM CLR 05/03 A3030 RMK AO2
Loading
Personal Weather Stations






























Interactive Weather Map
Tropical Storm Tracking
New forecast layout! Learn more

10-Day Weather Forecast

Advertisements
Track Severe Weather on mobile